sensor_id;sensor_type;location;lat;lon;timestamp;P1;durP1;ratioP1;P2;durP2;ratioP2
45208;SDS011;30951;43.994;26.260;2023-09-30T00:01:49;31.90;;;7.82;;
45208;SDS011;30951;43.994;26.260;2023-09-30T00:04:17;29.63;;;5.82;;
45208;SDS011;30951;43.994;26.260;2023-09-30T00:06:43;17.95;;;5.63;;
45208;SDS011;30951;43.994;26.260;2023-09-30T00:09:08;30.48;;;10.02;;
45208;SDS011;30951;43.994;26.260;2023-09-30T00:11:34;47.80;;;13.18;;
45208;SDS011;30951;43.994;26.260;2023-09-30T00:14:00;42.90;;;14.57;;
45208;SDS011;30951;43.994;26.260;2023-09-30T00:16:26;51.45;;;15.73;;
45208;SDS011;30951;43.994;26.260;2023-09-30T00:18:51;65.28;;;18.70;;
45208;SDS011;30951;43.994;26.260;2023-09-30T00:21:19;60.33;;;19.50;;
45208;SDS011;30951;43.994;26.260;2023-09-30T00:23:45;50.45;;;17.40;;
45208;SDS011;30951;43.994;26.260;2023-09-30T00:26:10;52.00;;;14.23;;
45208;SDS011;30951;43.994;26.260;2023-09-30T00:28:35;43.58;;;11.95;;
45208;SDS011;30951;43.994;26.260;2023-09-30T00:31:01;25.98;;;9.32;;
45208;SDS011;30951;43.994;26.260;2023-09-30T00:33:26;26.05;;;9.35;;
45208;SDS011;30951;43.994;26.260;2023-09-30T00:35:52;33.00;;;12.23;;
45208;SDS011;30951;43.994;26.260;2023-09-30T00:38:18;31.40;;;10.93;;
45208;SDS011;30951;43.994;26.260;2023-09-30T00:40:47;39.13;;;14.65;;
45208;SDS011;30951;43.994;26.260;2023-09-30T00:43:19;52.17;;;19.05;;
45208;SDS011;30951;43.994;26.260;2023-09-30T00:45:46;73.20;;;21.88;;
45208;SDS011;30951;43.994;26.260;2023-09-30T00:48:14;59.72;;;22.13;;
45208;SDS011;30951;43.994;26.260;2023-09-30T00:50:39;71.97;;;25.45;;
45208;SDS011;30951;43.994;26.260;2023-09-30T00:53:06;81.70;;;27.42;;
45208;SDS011;30951;43.994;26.260;2023-09-30T00:55:32;61.05;;;17.88;;
45208;SDS011;30951;43.994;26.260;2023-09-30T00:57:58;43.08;;;14.40;;
45208;SDS011;30951;43.994;26.260;2023-09-30T01:00:24;41.50;;;13.55;;
45208;SDS011;30951;43.994;26.260;2023-09-30T01:02:50;39.28;;;11.75;;
45208;SDS011;30951;43.994;26.260;2023-09-30T01:05:18;32.40;;;12.98;;
45208;SDS011;30951;43.994;26.260;2023-09-30T01:07:44;36.47;;;10.65;;
45208;SDS011;30951;43.994;26.260;2023-09-30T01:10:09;23.75;;;9.18;;
45208;SDS011;30951;43.994;26.260;2023-09-30T01:12:35;30.63;;;9.50;;
45208;SDS011;30951;43.994;26.260;2023-09-30T01:15:00;28.52;;;8.23;;
45208;SDS011;30951;43.994;26.260;2023-09-30T01:17:26;28.70;;;8.80;;
45208;SDS011;30951;43.994;26.260;2023-09-30T01:19:54;33.47;;;10.25;;
45208;SDS011;30951;43.994;26.260;2023-09-30T01:22:19;32.85;;;10.95;;
45208;SDS011;30951;43.994;26.260;2023-09-30T01:24:46;48.95;;;12.25;;
45208;SDS011;30951;43.994;26.260;2023-09-30T01:27:12;34.85;;;12.98;;
45208;SDS011;30951;43.994;26.260;2023-09-30T01:29:38;43.03;;;12.48;;
45208;SDS011;30951;43.994;26.260;2023-09-30T01:32:04;33.40;;;11.18;;
45208;SDS011;30951;43.994;26.260;2023-09-30T01:34:34;40.05;;;12.55;;
45208;SDS011;30951;43.994;26.260;2023-09-30T01:36:59;39.40;;;12.45;;
45208;SDS011;30951;43.994;26.260;2023-09-30T01:39:25;44.90;;;14.57;;
45208;SDS011;30951;43.994;26.260;2023-09-30T01:41:50;55.95;;;18.60;;
45208;SDS011;30951;43.994;26.260;2023-09-30T01:44:16;52.75;;;15.15;;
45208;SDS011;30951;43.994;26.260;2023-09-30T01:46:41;42.22;;;12.95;;
45208;SDS011;30951;43.994;26.260;2023-09-30T01:49:07;32.53;;;9.68;;
45208;SDS011;30951;43.994;26.260;2023-09-30T01:51:32;25.65;;;10.27;;
45208;SDS011;30951;43.994;26.260;2023-09-30T01:53:58;35.55;;;11.77;;
45208;SDS011;30951;43.994;26.260;2023-09-30T01:56:23;37.78;;;13.05;;
45208;SDS011;30951;43.994;26.260;2023-09-30T01:58:49;39.63;;;12.90;;
45208;SDS011;30951;43.994;26.260;2023-09-30T02:01:14;38.97;;;14.13;;
45208;SDS011;30951;43.994;26.260;2023-09-30T02:03:40;57.95;;;18.15;;
45208;SDS011;30951;43.994;26.260;2023-09-30T02:06:07;57.30;;;19.60;;
45208;SDS011;30951;43.994;26.260;2023-09-30T02:08:33;36.47;;;14.30;;
45208;SDS011;30951;43.994;26.260;2023-09-30T02:11:01;41.03;;;11.98;;
45208;SDS011;30951;43.994;26.260;2023-09-30T02:13:27;55.60;;;15.32;;
45208;SDS011;30951;43.994;26.260;2023-09-30T02:15:53;34.85;;;13.75;;
45208;SDS011;30951;43.994;26.260;2023-09-30T02:18:20;33.40;;;11.38;;
45208;SDS011;30951;43.994;26.260;2023-09-30T02:20:47;28.80;;;9.63;;
45208;SDS011;30951;43.994;26.260;2023-09-30T02:23:12;27.45;;;9.07;;
45208;SDS011;30951;43.994;26.260;2023-09-30T02:25:38;26.40;;;8.10;;
45208;SDS011;30951;43.994;26.260;2023-09-30T02:28:04;31.10;;;9.10;;
45208;SDS011;30951;43.994;26.260;2023-09-30T02:30:30;23.50;;;10.30;;
45208;SDS011;30951;43.994;26.260;2023-09-30T02:32:56;43.33;;;11.63;;
45208;SDS011;30951;43.994;26.260;2023-09-30T02:35:22;29.58;;;11.60;;
45208;SDS011;30951;43.994;26.260;2023-09-30T02:37:47;29.85;;;10.43;;
45208;SDS011;30951;43.994;26.260;2023-09-30T02:40:14;32.05;;;9.65;;
45208;SDS011;30951;43.994;26.260;2023-09-30T02:42:42;35.47;;;10.23;;
45208;SDS011;30951;43.994;26.260;2023-09-30T02:45:08;28.05;;;11.25;;
45208;SDS011;30951;43.994;26.260;2023-09-30T02:47:34;37.92;;;12.75;;
45208;SDS011;30951;43.994;26.260;2023-09-30T02:50:00;40.13;;;13.27;;
45208;SDS011;30951;43.994;26.260;2023-09-30T02:52:26;49.25;;;15.68;;
45208;SDS011;30951;43.994;26.260;2023-09-30T02:54:54;41.55;;;15.77;;
45208;SDS011;30951;43.994;26.260;2023-09-30T02:57:19;54.63;;;16.17;;
45208;SDS011;30951;43.994;26.260;2023-09-30T02:59:46;37.92;;;15.30;;
45208;SDS011;30951;43.994;26.260;2023-09-30T03:02:12;52.50;;;16.58;;
45208;SDS011;30951;43.994;26.260;2023-09-30T03:04:37;59.25;;;16.48;;
45208;SDS011;30951;43.994;26.260;2023-09-30T03:07:03;51.72;;;17.90;;
45208;SDS011;30951;43.994;26.260;2023-09-30T03:09:28;58.85;;;18.33;;
45208;SDS011;30951;43.994;26.260;2023-09-30T03:11:54;57.08;;;17.27;;
45208;SDS011;30951;43.994;26.260;2023-09-30T03:14:24;56.60;;;17.50;;
45208;SDS011;30951;43.994;26.260;2023-09-30T03:16:50;48.45;;;17.33;;
45208;SDS011;30951;43.994;26.260;2023-09-30T03:19:15;46.75;;;18.25;;
45208;SDS011;30951;43.994;26.260;2023-09-30T03:21:42;48.70;;;17.75;;
45208;SDS011;30951;43.994;26.260;2023-09-30T03:24:07;50.78;;;14.88;;
45208;SDS011;30951;43.994;26.260;2023-09-30T03:26:33;48.88;;;15.57;;
45208;SDS011;30951;43.994;26.260;2023-09-30T03:28:59;39.20;;;16.08;;
45208;SDS011;30951;43.994;26.260;2023-09-30T03:31:25;48.75;;;15.10;;
45208;SDS011;30951;43.994;26.260;2023-09-30T03:33:51;38.55;;;15.10;;
45208;SDS011;30951;43.994;26.260;2023-09-30T03:36:22;29.05;;;12.63;;
45208;SDS011;30951;43.994;26.260;2023-09-30T03:38:50;60.03;;;19.17;;
45208;SDS011;30951;43.994;26.260;2023-09-30T03:41:15;75.78;;;24.80;;
45208;SDS011;30951;43.994;26.260;2023-09-30T03:43:41;80.57;;;22.92;;
45208;SDS011;30951;43.994;26.260;2023-09-30T03:46:07;59.88;;;22.75;;
45208;SDS011;30951;43.994;26.260;2023-09-30T03:48:33;63.95;;;18.30;;
45208;SDS011;30951;43.994;26.260;2023-09-30T03:51:10;36.20;;;11.82;;
45208;SDS011;30951;43.994;26.260;2023-09-30T03:53:40;32.47;;;11.88;;
45208;SDS011;30951;43.994;26.260;2023-09-30T03:56:09;27.60;;;10.90;;
45208;SDS011;30951;43.994;26.260;2023-09-30T03:58:37;29.15;;;11.00;;
45208;SDS011;30951;43.994;26.260;2023-09-30T04:01:07;33.13;;;12.48;;
45208;SDS011;30951;43.994;26.260;2023-09-30T04:03:33;26.08;;;10.93;;
45208;SDS011;30951;43.994;26.260;2023-09-30T04:06:00;23.88;;;11.15;;
45208;SDS011;30951;43.994;26.260;2023-09-30T04:08:27;33.20;;;12.13;;
45208;SDS011;30951;43.994;26.260;2023-09-30T04:10:54;30.98;;;13.70;;
45208;SDS011;30951;43.994;26.260;2023-09-30T04:13:19;35.65;;;13.30;;
45208;SDS011;30951;43.994;26.260;2023-09-30T04:15:46;45.22;;;14.48;;
45208;SDS011;30951;43.994;26.260;2023-09-30T04:18:12;52.53;;;17.15;;
45208;SDS011;30951;43.994;26.260;2023-09-30T04:20:37;51.88;;;17.55;;
45208;SDS011;30951;43.994;26.260;2023-09-30T04:23:05;59.83;;;16.83;;
45208;SDS011;30951;43.994;26.260;2023-09-30T04:25:35;53.28;;;16.90;;
45208;SDS011;30951;43.994;26.260;2023-09-30T04:28:01;56.05;;;20.13;;
45208;SDS011;30951;43.994;26.260;2023-09-30T04:30:27;58.00;;;22.27;;
45208;SDS011;30951;43.994;26.260;2023-09-30T04:32:54;49.38;;;17.60;;
45208;SDS011;30951;43.994;26.260;2023-09-30T04:35:20;57.03;;;22.33;;
45208;SDS011;30951;43.994;26.260;2023-09-30T04:37:46;69.55;;;25.90;;
45208;SDS011;30951;43.994;26.260;2023-09-30T04:40:12;50.63;;;18.35;;
45208;SDS011;30951;43.994;26.260;2023-09-30T04:42:43;66.78;;;30.13;;
45208;SDS011;30951;43.994;26.260;2023-09-30T04:45:10;65.78;;;26.52;;
45208;SDS011;30951;43.994;26.260;2023-09-30T04:47:36;78.65;;;28.33;;
45208;SDS011;30951;43.994;26.260;2023-09-30T04:50:03;71.15;;;28.13;;
45208;SDS011;30951;43.994;26.260;2023-09-30T04:52:32;68.22;;;27.77;;
45208;SDS011;30951;43.994;26.260;2023-09-30T04:54:58;94.47;;;36.38;;
45208;SDS011;30951;43.994;26.260;2023-09-30T04:57:25;67.95;;;30.58;;
45208;SDS011;30951;43.994;26.260;2023-09-30T04:59:51;55.40;;;23.55;;
45208;SDS011;30951;43.994;26.260;2023-09-30T05:02:16;57.75;;;20.35;;
45208;SDS011;30951;43.994;26.260;2023-09-30T05:04:42;45.05;;;16.23;;
45208;SDS011;30951;43.994;26.260;2023-09-30T05:07:07;46.60;;;16.02;;
45208;SDS011;30951;43.994;26.260;2023-09-30T05:09:33;42.78;;;14.02;;
45208;SDS011;30951;43.994;26.260;2023-09-30T05:11:59;36.65;;;15.25;;
45208;SDS011;30951;43.994;26.260;2023-09-30T05:14:24;53.03;;;18.05;;
45208;SDS011;30951;43.994;26.260;2023-09-30T05:16:49;55.00;;;18.15;;
45208;SDS011;30951;43.994;26.260;2023-09-30T05:19:15;54.80;;;19.55;;
45208;SDS011;30951;43.994;26.260;2023-09-30T05:21:41;96.45;;;23.27;;
45208;SDS011;30951;43.994;26.260;2023-09-30T05:24:07;47.63;;;19.80;;
45208;SDS011;30951;43.994;26.260;2023-09-30T05:26:33;56.38;;;19.13;;
45208;SDS011;30951;43.994;26.260;2023-09-30T05:28:59;40.65;;;16.67;;
45208;SDS011;30951;43.994;26.260;2023-09-30T05:31:25;43.78;;;15.57;;
45208;SDS011;30951;43.994;26.260;2023-09-30T05:33:50;32.15;;;14.25;;
45208;SDS011;30951;43.994;26.260;2023-09-30T05:36:16;40.72;;;15.70;;
45208;SDS011;30951;43.994;26.260;2023-09-30T05:38:41;39.47;;;14.90;;
45208;SDS011;30951;43.994;26.260;2023-09-30T05:41:07;44.25;;;14.18;;
45208;SDS011;30951;43.994;26.260;2023-09-30T05:43:33;41.50;;;13.38;;
45208;SDS011;30951;43.994;26.260;2023-09-30T05:45:59;35.03;;;14.65;;
45208;SDS011;30951;43.994;26.260;2023-09-30T05:48:24;31.50;;;14.95;;
45208;SDS011;30951;43.994;26.260;2023-09-30T05:50:50;32.67;;;14.18;;
45208;SDS011;30951;43.994;26.260;2023-09-30T05:53:15;33.97;;;13.60;;
45208;SDS011;30951;43.994;26.260;2023-09-30T05:55:41;33.42;;;11.77;;
45208;SDS011;30951;43.994;26.260;2023-09-30T05:58:12;35.88;;;12.18;;
45208;SDS011;30951;43.994;26.260;2023-09-30T06:00:39;34.33;;;15.10;;
45208;SDS011;30951;43.994;26.260;2023-09-30T06:03:05;38.28;;;14.13;;
45208;SDS011;30951;43.994;26.260;2023-09-30T06:05:31;32.50;;;12.40;;
45208;SDS011;30951;43.994;26.260;2023-09-30T06:07:58;30.80;;;14.95;;
45208;SDS011;30951;43.994;26.260;2023-09-30T06:10:25;39.88;;;13.05;;
45208;SDS011;30951;43.994;26.260;2023-09-30T06:12:51;38.35;;;11.48;;
45208;SDS011;30951;43.994;26.260;2023-09-30T06:15:20;29.15;;;11.13;;
45208;SDS011;30951;43.994;26.260;2023-09-30T06:17:47;20.48;;;9.60;;
45208;SDS011;30951;43.994;26.260;2023-09-30T06:20:14;24.15;;;9.00;;
45208;SDS011;30951;43.994;26.260;2023-09-30T06:22:45;30.38;;;9.57;;
45208;SDS011;30951;43.994;26.260;2023-09-30T06:25:11;23.83;;;8.27;;
45208;SDS011;30951;43.994;26.260;2023-09-30T06:27:38;15.05;;;8.75;;
45208;SDS011;30951;43.994;26.260;2023-09-30T06:30:04;19.83;;;8.80;;
45208;SDS011;30951;43.994;26.260;2023-09-30T06:32:30;19.85;;;7.35;;
45208;SDS011;30951;43.994;26.260;2023-09-30T06:34:56;15.98;;;7.70;;
45208;SDS011;30951;43.994;26.260;2023-09-30T06:37:21;9.18;;;6.97;;
45208;SDS011;30951;43.994;26.260;2023-09-30T06:39:47;14.10;;;8.15;;
45208;SDS011;30951;43.994;26.260;2023-09-30T06:42:13;21.08;;;8.30;;
45208;SDS011;30951;43.994;26.260;2023-09-30T06:44:39;20.55;;;8.05;;
45208;SDS011;30951;43.994;26.260;2023-09-30T06:47:04;15.85;;;7.85;;
45208;SDS011;30951;43.994;26.260;2023-09-30T06:49:33;12.63;;;7.53;;
45208;SDS011;30951;43.994;26.260;2023-09-30T06:51:59;15.90;;;8.30;;
45208;SDS011;30951;43.994;26.260;2023-09-30T06:54:24;22.88;;;7.97;;
45208;SDS011;30951;43.994;26.260;2023-09-30T06:56:50;19.55;;;7.70;;
45208;SDS011;30951;43.994;26.260;2023-09-30T06:59:15;22.45;;;7.32;;
45208;SDS011;30951;43.994;26.260;2023-09-30T07:01:41;20.85;;;6.47;;
45208;SDS011;30951;43.994;26.260;2023-09-30T07:04:06;15.32;;;6.57;;
45208;SDS011;30951;43.994;26.260;2023-09-30T07:06:32;11.80;;;5.45;;
45208;SDS011;30951;43.994;26.260;2023-09-30T07:08:57;9.52;;;5.55;;
45208;SDS011;30951;43.994;26.260;2023-09-30T07:11:26;20.38;;;6.30;;
45208;SDS011;30951;43.994;26.260;2023-09-30T07:13:53;22.42;;;5.43;;
45208;SDS011;30951;43.994;26.260;2023-09-30T07:16:19;17.25;;;4.78;;
45208;SDS011;30951;43.994;26.260;2023-09-30T07:18:44;16.48;;;5.45;;
45208;SDS011;30951;43.994;26.260;2023-09-30T07:21:10;8.73;;;4.38;;
45208;SDS011;30951;43.994;26.260;2023-09-30T07:23:35;11.18;;;4.97;;
45208;SDS011;30951;43.994;26.260;2023-09-30T07:26:01;9.95;;;5.90;;
45208;SDS011;30951;43.994;26.260;2023-09-30T07:28:26;10.15;;;5.15;;
45208;SDS011;30951;43.994;26.260;2023-09-30T07:30:51;12.93;;;5.72;;
45208;SDS011;30951;43.994;26.260;2023-09-30T07:33:17;7.57;;;5.07;;
45208;SDS011;30951;43.994;26.260;2023-09-30T07:35:43;10.10;;;4.35;;
45208;SDS011;30951;43.994;26.260;2023-09-30T07:38:09;9.73;;;5.20;;
45208;SDS011;30951;43.994;26.260;2023-09-30T07:40:35;13.77;;;5.30;;
45208;SDS011;30951;43.994;26.260;2023-09-30T07:43:00;11.30;;;4.57;;
45208;SDS011;30951;43.994;26.260;2023-09-30T07:45:26;13.55;;;4.85;;
45208;SDS011;30951;43.994;26.260;2023-09-30T07:47:51;11.75;;;4.63;;
45208;SDS011;30951;43.994;26.260;2023-09-30T07:50:17;10.77;;;4.45;;
45208;SDS011;30951;43.994;26.260;2023-09-30T07:52:42;13.23;;;4.88;;
45208;SDS011;30951;43.994;26.260;2023-09-30T07:55:09;17.63;;;4.97;;
45208;SDS011;30951;43.994;26.260;2023-09-30T07:57:34;15.73;;;5.20;;
45208;SDS011;30951;43.994;26.260;2023-09-30T08:00:00;22.38;;;4.45;;
45208;SDS011;30951;43.994;26.260;2023-09-30T08:02:28;12.20;;;4.90;;
45208;SDS011;30951;43.994;26.260;2023-09-30T08:04:58;11.10;;;4.13;;
45208;SDS011;30951;43.994;26.260;2023-09-30T08:07:25;19.95;;;5.05;;
45208;SDS011;30951;43.994;26.260;2023-09-30T08:09:51;14.52;;;4.25;;
45208;SDS011;30951;43.994;26.260;2023-09-30T08:12:16;17.10;;;4.97;;
45208;SDS011;30951;43.994;26.260;2023-09-30T08:14:42;14.05;;;4.93;;
45208;SDS011;30951;43.994;26.260;2023-09-30T08:17:09;21.27;;;4.70;;
45208;SDS011;30951;43.994;26.260;2023-09-30T08:19:35;15.02;;;4.78;;
45208;SDS011;30951;43.994;26.260;2023-09-30T08:22:01;11.68;;;4.53;;
45208;SDS011;30951;43.994;26.260;2023-09-30T08:24:28;14.80;;;4.57;;
45208;SDS011;30951;43.994;26.260;2023-09-30T08:26:54;14.13;;;5.20;;
45208;SDS011;30951;43.994;26.260;2023-09-30T08:29:21;11.27;;;5.13;;
45208;SDS011;30951;43.994;26.260;2023-09-30T08:31:49;7.93;;;4.53;;
45208;SDS011;30951;43.994;26.260;2023-09-30T08:34:15;12.55;;;5.45;;
45208;SDS011;30951;43.994;26.260;2023-09-30T08:36:42;20.63;;;4.82;;
45208;SDS011;30951;43.994;26.260;2023-09-30T08:39:07;16.75;;;5.32;;
45208;SDS011;30951;43.994;26.260;2023-09-30T08:41:34;9.93;;;4.55;;
45208;SDS011;30951;43.994;26.260;2023-09-30T08:44:00;15.93;;;5.05;;
45208;SDS011;30951;43.994;26.260;2023-09-30T08:46:32;6.87;;;4.10;;
45208;SDS011;30951;43.994;26.260;2023-09-30T08:49:03;16.95;;;5.22;;
45208;SDS011;30951;43.994;26.260;2023-09-30T08:51:29;12.97;;;5.10;;
45208;SDS011;30951;43.994;26.260;2023-09-30T08:53:56;17.83;;;4.47;;
45208;SDS011;30951;43.994;26.260;2023-09-30T08:56:28;18.17;;;4.93;;
45208;SDS011;30951;43.994;26.260;2023-09-30T08:58:58;13.02;;;5.25;;
45208;SDS011;30951;43.994;26.260;2023-09-30T09:01:26;13.55;;;6.15;;
45208;SDS011;30951;43.994;26.260;2023-09-30T09:03:53;13.07;;;6.00;;
45208;SDS011;30951;43.994;26.260;2023-09-30T09:06:22;14.90;;;5.30;;
45208;SDS011;30951;43.994;26.260;2023-09-30T09:08:48;19.30;;;5.10;;
45208;SDS011;30951;43.994;26.260;2023-09-30T09:11:14;19.83;;;5.70;;
45208;SDS011;30951;43.994;26.260;2023-09-30T09:13:50;19.73;;;4.95;;
45208;SDS011;30951;43.994;26.260;2023-09-30T09:16:20;13.73;;;5.53;;
45208;SDS011;30951;43.994;26.260;2023-09-30T09:18:46;15.98;;;4.97;;
45208;SDS011;30951;43.994;26.260;2023-09-30T09:21:19;15.30;;;4.63;;
45208;SDS011;30951;43.994;26.260;2023-09-30T09:23:48;13.55;;;4.20;;
45208;SDS011;30951;43.994;26.260;2023-09-30T09:26:25;10.60;;;4.82;;
45208;SDS011;30951;43.994;26.260;2023-09-30T09:28:53;14.32;;;4.43;;
45208;SDS011;30951;43.994;26.260;2023-09-30T09:31:22;14.90;;;4.97;;
45208;SDS011;30951;43.994;26.260;2023-09-30T09:33:49;22.92;;;5.90;;
45208;SDS011;30951;43.994;26.260;2023-09-30T09:36:16;17.95;;;5.22;;
45208;SDS011;30951;43.994;26.260;2023-09-30T09:38:45;18.38;;;5.47;;
45208;SDS011;30951;43.994;26.260;2023-09-30T09:41:14;19.58;;;5.82;;
45208;SDS011;30951;43.994;26.260;2023-09-30T09:43:43;18.50;;;4.82;;
45208;SDS011;30951;43.994;26.260;2023-09-30T09:46:09;13.55;;;4.53;;
45208;SDS011;30951;43.994;26.260;2023-09-30T09:48:35;17.73;;;3.67;;
45208;SDS011;30951;43.994;26.260;2023-09-30T09:51:02;14.32;;;3.72;;
45208;SDS011;30951;43.994;26.260;2023-09-30T09:53:30;12.23;;;3.88;;
45208;SDS011;30951;43.994;26.260;2023-09-30T09:56:00;15.82;;;4.13;;
45208;SDS011;30951;43.994;26.260;2023-09-30T09:58:26;11.50;;;4.20;;
45208;SDS011;30951;43.994;26.260;2023-09-30T10:00:52;13.52;;;4.30;;
45208;SDS011;30951;43.994;26.260;2023-09-30T10:03:18;7.05;;;3.75;;
45208;SDS011;30951;43.994;26.260;2023-09-30T10:05:44;15.85;;;3.92;;
45208;SDS011;30951;43.994;26.260;2023-09-30T10:08:13;4.35;;;3.20;;
45208;SDS011;30951;43.994;26.260;2023-09-30T10:10:42;11.20;;;4.30;;
45208;SDS011;30951;43.994;26.260;2023-09-30T10:13:09;11.38;;;3.75;;
45208;SDS011;30951;43.994;26.260;2023-09-30T10:16:46;12.07;;;3.88;;
45208;SDS011;30951;43.994;26.260;2023-09-30T10:19:11;12.48;;;3.80;;
45208;SDS011;30951;43.994;26.260;2023-09-30T10:21:37;8.93;;;3.47;;
45208;SDS011;30951;43.994;26.260;2023-09-30T10:27:31;11.98;;;3.38;;
45208;SDS011;30951;43.994;26.260;2023-09-30T10:30:18;14.90;;;2.97;;
45208;SDS011;30951;43.994;26.260;2023-09-30T10:40:50;5.30;;;2.88;;
45208;SDS011;30951;43.994;26.260;2023-09-30T10:46:10;7.30;;;3.08;;
45208;SDS011;30951;43.994;26.260;2023-09-30T10:48:52;5.40;;;3.15;;
45208;SDS011;30951;43.994;26.260;2023-09-30T10:51:20;11.20;;;2.90;;
45208;SDS011;30951;43.994;26.260;2023-09-30T10:53:50;10.68;;;2.70;;
45208;SDS011;30951;43.994;26.260;2023-09-30T10:56:17;7.93;;;3.10;;
45208;SDS011;30951;43.994;26.260;2023-09-30T10:58:47;7.53;;;3.13;;
45208;SDS011;30951;43.994;26.260;2023-09-30T11:03:41;8.98;;;3.08;;
45208;SDS011;30951;43.994;26.260;2023-09-30T11:06:07;8.65;;;3.20;;
45208;SDS011;30951;43.994;26.260;2023-09-30T11:08:37;11.00;;;2.92;;
45208;SDS011;30951;43.994;26.260;2023-09-30T11:11:03;7.70;;;3.13;;
45208;SDS011;30951;43.994;26.260;2023-09-30T11:13:33;4.60;;;2.60;;
45208;SDS011;30951;43.994;26.260;2023-09-30T11:16:02;8.55;;;3.10;;
45208;SDS011;30951;43.994;26.260;2023-09-30T11:18:30;8.60;;;3.22;;
45208;SDS011;30951;43.994;26.260;2023-09-30T11:21:03;12.30;;;3.00;;
45208;SDS011;30951;43.994;26.260;2023-09-30T11:23:30;21.10;;;3.30;;
45208;SDS011;30951;43.994;26.260;2023-09-30T11:25:56;8.15;;;2.80;;
45208;SDS011;30951;43.994;26.260;2023-09-30T11:28:22;6.07;;;3.15;;
45208;SDS011;30951;43.994;26.260;2023-09-30T11:33:23;6.20;;;2.97;;
45208;SDS011;30951;43.994;26.260;2023-09-30T11:36:00;3.92;;;2.92;;
45208;SDS011;30951;43.994;26.260;2023-09-30T11:38:27;4.10;;;3.22;;
45208;SDS011;30951;43.994;26.260;2023-09-30T11:43:25;4.70;;;2.93;;
45208;SDS011;30951;43.994;26.260;2023-09-30T11:45:50;3.72;;;2.85;;
45208;SDS011;30951;43.994;26.260;2023-09-30T11:48:17;10.50;;;2.72;;
45208;SDS011;30951;43.994;26.260;2023-09-30T11:50:45;16.85;;;2.65;;
45208;SDS011;30951;43.994;26.260;2023-09-30T11:53:15;11.85;;;2.70;;
45208;SDS011;30951;43.994;26.260;2023-09-30T11:55:41;4.10;;;3.00;;
45208;SDS011;30951;43.994;26.260;2023-09-30T11:58:07;15.98;;;3.22;;
45208;SDS011;30951;43.994;26.260;2023-09-30T12:00:35;4.88;;;2.90;;
45208;SDS011;30951;43.994;26.260;2023-09-30T12:03:00;10.57;;;2.60;;
45208;SDS011;30951;43.994;26.260;2023-09-30T12:05:26;6.75;;;2.83;;
45208;SDS011;30951;43.994;26.260;2023-09-30T12:07:51;10.23;;;2.80;;
45208;SDS011;30951;43.994;26.260;2023-09-30T12:10:17;6.78;;;2.90;;
45208;SDS011;30951;43.994;26.260;2023-09-30T12:12:42;13.55;;;2.65;;
45208;SDS011;30951;43.994;26.260;2023-09-30T12:15:08;14.73;;;2.97;;
45208;SDS011;30951;43.994;26.260;2023-09-30T12:17:36;7.68;;;2.80;;
45208;SDS011;30951;43.994;26.260;2023-09-30T12:20:04;5.72;;;2.60;;
45208;SDS011;30951;43.994;26.260;2023-09-30T12:22:31;10.80;;;2.88;;
45208;SDS011;30951;43.994;26.260;2023-09-30T12:24:57;4.93;;;3.03;;
45208;SDS011;30951;43.994;26.260;2023-09-30T12:27:23;7.55;;;2.75;;
45208;SDS011;30951;43.994;26.260;2023-09-30T12:29:49;10.95;;;2.83;;
45208;SDS011;30951;43.994;26.260;2023-09-30T12:32:15;5.40;;;2.78;;
45208;SDS011;30951;43.994;26.260;2023-09-30T12:34:40;6.60;;;3.25;;
45208;SDS011;30951;43.994;26.260;2023-09-30T12:37:06;10.57;;;2.83;;
45208;SDS011;30951;43.994;26.260;2023-09-30T12:39:32;7.22;;;2.80;;
45208;SDS011;30951;43.994;26.260;2023-09-30T12:41:58;11.15;;;3.28;;
45208;SDS011;30951;43.994;26.260;2023-09-30T12:44:24;6.72;;;2.70;;
45208;SDS011;30951;43.994;26.260;2023-09-30T12:46:50;13.18;;;2.90;;
45208;SDS011;30951;43.994;26.260;2023-09-30T12:49:15;7.88;;;3.20;;
45208;SDS011;30951;43.994;26.260;2023-09-30T12:51:41;4.47;;;2.80;;
45208;SDS011;30951;43.994;26.260;2023-09-30T12:54:06;13.60;;;3.03;;
45208;SDS011;30951;43.994;26.260;2023-09-30T12:56:33;15.25;;;3.53;;
45208;SDS011;30951;43.994;26.260;2023-09-30T12:58:58;5.03;;;2.90;;
45208;SDS011;30951;43.994;26.260;2023-09-30T13:01:24;7.75;;;3.10;;
45208;SDS011;30951;43.994;26.260;2023-09-30T13:03:50;6.65;;;3.30;;
45208;SDS011;30951;43.994;26.260;2023-09-30T13:06:16;10.55;;;2.85;;
45208;SDS011;30951;43.994;26.260;2023-09-30T13:08:42;11.48;;;3.35;;
45208;SDS011;30951;43.994;26.260;2023-09-30T13:11:08;8.18;;;2.58;;
45208;SDS011;30951;43.994;26.260;2023-09-30T13:13:34;8.60;;;2.80;;
45208;SDS011;30951;43.994;26.260;2023-09-30T13:16:00;7.15;;;3.20;;
45208;SDS011;30951;43.994;26.260;2023-09-30T13:18:26;10.45;;;2.88;;
45208;SDS011;30951;43.994;26.260;2023-09-30T13:20:52;5.80;;;3.10;;
45208;SDS011;30951;43.994;26.260;2023-09-30T13:23:18;10.70;;;2.85;;
45208;SDS011;30951;43.994;26.260;2023-09-30T13:25:44;10.77;;;3.45;;
45208;SDS011;30951;43.994;26.260;2023-09-30T13:28:09;7.90;;;3.10;;
45208;SDS011;30951;43.994;26.260;2023-09-30T13:30:35;7.25;;;3.05;;
45208;SDS011;30951;43.994;26.260;2023-09-30T13:33:01;9.07;;;3.08;;
45208;SDS011;30951;43.994;26.260;2023-09-30T13:35:27;6.18;;;2.85;;
45208;SDS011;30951;43.994;26.260;2023-09-30T13:37:52;9.65;;;3.15;;
45208;SDS011;30951;43.994;26.260;2023-09-30T13:40:18;9.75;;;3.03;;
45208;SDS011;30951;43.994;26.260;2023-09-30T13:42:44;4.80;;;2.90;;
45208;SDS011;30951;43.994;26.260;2023-09-30T13:45:10;10.68;;;2.63;;
45208;SDS011;30951;43.994;26.260;2023-09-30T13:47:36;6.75;;;3.08;;
45208;SDS011;30951;43.994;26.260;2023-09-30T13:50:01;6.10;;;2.88;;
45208;SDS011;30951;43.994;26.260;2023-09-30T13:52:29;10.40;;;2.88;;
45208;SDS011;30951;43.994;26.260;2023-09-30T13:54:54;9.63;;;3.10;;
45208;SDS011;30951;43.994;26.260;2023-09-30T13:57:21;7.68;;;2.85;;
45208;SDS011;30951;43.994;26.260;2023-09-30T13:59:46;7.55;;;2.90;;
45208;SDS011;30951;43.994;26.260;2023-09-30T14:02:12;7.40;;;3.15;;
45208;SDS011;30951;43.994;26.260;2023-09-30T14:04:38;6.90;;;3.25;;
45208;SDS011;30951;43.994;26.260;2023-09-30T14:07:03;8.10;;;2.83;;
45208;SDS011;30951;43.994;26.260;2023-09-30T14:09:30;6.32;;;3.15;;
45208;SDS011;30951;43.994;26.260;2023-09-30T14:11:56;9.90;;;2.75;;
45208;SDS011;30951;43.994;26.260;2023-09-30T14:14:24;10.05;;;3.33;;
45208;SDS011;30951;43.994;26.260;2023-09-30T14:16:49;6.10;;;3.10;;
45208;SDS011;30951;43.994;26.260;2023-09-30T14:19:15;6.75;;;2.50;;
45208;SDS011;30951;43.994;26.260;2023-09-30T14:21:40;8.07;;;2.72;;
45208;SDS011;30951;43.994;26.260;2023-09-30T14:24:06;11.75;;;3.45;;
45208;SDS011;30951;43.994;26.260;2023-09-30T14:26:32;6.65;;;3.40;;
45208;SDS011;30951;43.994;26.260;2023-09-30T14:28:58;10.40;;;3.15;;
45208;SDS011;30951;43.994;26.260;2023-09-30T14:31:24;6.82;;;3.13;;
45208;SDS011;30951;43.994;26.260;2023-09-30T14:33:49;10.27;;;3.47;;
45208;SDS011;30951;43.994;26.260;2023-09-30T14:36:16;11.00;;;3.50;;
45208;SDS011;30951;43.994;26.260;2023-09-30T14:38:43;7.57;;;3.08;;